sensor_id;sensor_type;location;lat;lon;timestamp;pressure;altitude;pressure_sealevel;temperature;humidity
76448;BME280;65284;51.040;13.722;2023-09-07T00:01:15;100568.47;;;18.48;76.16
76448;BME280;65284;51.040;13.722;2023-09-07T00:03:42;100573.25;;;18.53;75.49
76448;BME280;65284;51.040;13.722;2023-09-07T00:06:09;100573.59;;;18.08;77.11
76448;BME280;65284;51.040;13.722;2023-09-07T00:08:35;100578.53;;;18.05;77.68
76448;BME280;65284;51.040;13.722;2023-09-07T00:11:06;100576.34;;;17.87;78.44
76448;BME280;65284;51.040;13.722;2023-09-07T00:13:33;100581.03;;;18.06;78.17
76448;BME280;65284;51.040;13.722;2023-09-07T00:16:01;100575.50;;;17.86;78.91
76448;BME280;65284;51.040;13.722;2023-09-07T00:18:29;100582.50;;;17.81;78.79
76448;BME280;65284;51.040;13.722;2023-09-07T00:20:56;100579.13;;;18.00;78.20
76448;BME280;65284;51.040;13.722;2023-09-07T00:23:22;100583.03;;;17.76;78.96
76448;BME280;65284;51.040;13.722;2023-09-07T00:25:48;100580.47;;;17.89;78.55
76448;BME280;65284;51.040;13.722;2023-09-07T00:28:15;100579.66;;;17.89;78.48
76448;BME280;65284;51.040;13.722;2023-09-07T00:30:41;100588.44;;;18.04;77.79
76448;BME280;65284;51.040;13.722;2023-09-07T00:33:08;100584.63;;;17.70;78.67
76448;BME280;65284;51.040;13.722;2023-09-07T00:35:35;100584.22;;;17.45;80.13
76448;BME280;65284;51.040;13.722;2023-09-07T00:38:01;100583.47;;;17.15;81.13
76448;BME280;65284;51.040;13.722;2023-09-07T00:40:30;100588.22;;;17.13;81.59
76448;BME280;65284;51.040;13.722;2023-09-07T00:42:58;100587.19;;;17.14;81.88
76448;BME280;65284;51.040;13.722;2023-09-07T00:45:24;100586.41;;;17.20;81.89
76448;BME280;65284;51.040;13.722;2023-09-07T00:47:51;100593.31;;;17.08;82.07
76448;BME280;65284;51.040;13.722;2023-09-07T00:50:18;100589.50;;;17.39;80.73
76448;BME280;65284;51.040;13.722;2023-09-07T00:52:45;100591.28;;;17.53;79.83
76448;BME280;65284;51.040;13.722;2023-09-07T00:55:13;100585.22;;;17.44;80.22
76448;BME280;65284;51.040;13.722;2023-09-07T00:57:40;100579.09;;;17.72;79.04
76448;BME280;65284;51.040;13.722;2023-09-07T01:00:09;100579.41;;;17.62;79.60
76448;BME280;65284;51.040;13.722;2023-09-07T01:02:36;100573.78;;;17.79;78.44
76448;BME280;65284;51.040;13.722;2023-09-07T01:05:03;100586.88;;;17.67;79.21
76448;BME280;65284;51.040;13.722;2023-09-07T01:07:46;100576.97;;;17.67;79.00
76448;BME280;65284;51.040;13.722;2023-09-07T01:10:14;100581.91;;;17.64;78.78
76448;BME280;65284;51.040;13.722;2023-09-07T01:12:40;100576.38;;;17.50;79.57
76448;BME280;65284;51.040;13.722;2023-09-07T01:15:07;100577.59;;;17.48;79.83
76448;BME280;65284;51.040;13.722;2023-09-07T01:17:34;100580.28;;;17.48;79.60
76448;BME280;65284;51.040;13.722;2023-09-07T01:20:05;100570.97;;;17.44;79.59
76448;BME280;65284;51.040;13.722;2023-09-07T01:22:33;100576.34;;;17.44;79.77
76448;BME280;65284;51.040;13.722;2023-09-07T01:25:00;100576.06;;;17.39;80.22
76448;BME280;65284;51.040;13.722;2023-09-07T01:27:27;100579.03;;;17.22;81.04
76448;BME280;65284;51.040;13.722;2023-09-07T01:29:53;100571.91;;;17.15;81.01
76448;BME280;65284;51.040;13.722;2023-09-07T01:32:20;100586.28;;;17.07;81.27
76448;BME280;65284;51.040;13.722;2023-09-07T01:34:46;100573.09;;;17.12;80.86
76448;BME280;65284;51.040;13.722;2023-09-07T01:37:13;100575.22;;;17.17;80.42
76448;BME280;65284;51.040;13.722;2023-09-07T01:39:39;100573.09;;;17.12;80.43
76448;BME280;65284;51.040;13.722;2023-09-07T01:42:06;100567.69;;;17.05;80.88
76448;BME280;65284;51.040;13.722;2023-09-07T01:44:33;100570.78;;;16.88;81.92
76448;BME280;65284;51.040;13.722;2023-09-07T01:46:59;100578.22;;;17.07;80.65
76448;BME280;65284;51.040;13.722;2023-09-07T01:49:26;100575.38;;;16.94;81.27
76448;BME280;65284;51.040;13.722;2023-09-07T01:51:52;100580.00;;;17.00;80.96
76448;BME280;65284;51.040;13.722;2023-09-07T01:54:21;100582.78;;;16.92;81.39
76448;BME280;65284;51.040;13.722;2023-09-07T01:56:47;100576.69;;;16.98;80.70
76448;BME280;65284;51.040;13.722;2023-09-07T01:59:14;100576.78;;;16.75;81.64
76448;BME280;65284;51.040;13.722;2023-09-07T02:01:40;100579.09;;;16.63;82.37
76448;BME280;65284;51.040;13.722;2023-09-07T02:04:07;100571.53;;;16.81;81.82
76448;BME280;65284;51.040;13.722;2023-09-07T02:06:33;100578.53;;;16.82;81.41
76448;BME280;65284;51.040;13.722;2023-09-07T02:09:00;100579.84;;;16.72;81.95
76448;BME280;65284;51.040;13.722;2023-09-07T02:11:26;100576.91;;;16.52;82.77
76448;BME280;65284;51.040;13.722;2023-09-07T02:13:53;100581.88;;;16.55;82.89
76448;BME280;65284;51.040;13.722;2023-09-07T02:16:19;100576.78;;;16.75;82.57
76448;BME280;65284;51.040;13.722;2023-09-07T02:18:49;100571.69;;;16.80;81.87
76448;BME280;65284;51.040;13.722;2023-09-07T02:21:16;100566.16;;;16.52;82.83
76448;BME280;65284;51.040;13.722;2023-09-07T02:23:42;100571.91;;;16.78;81.82
76448;BME280;65284;51.040;13.722;2023-09-07T02:26:09;100574.66;;;16.70;82.21
76448;BME280;65284;51.040;13.722;2023-09-07T02:28:35;100575.78;;;16.61;82.47
76448;BME280;65284;51.040;13.722;2023-09-07T02:31:03;100574.88;;;16.83;81.73
76448;BME280;65284;51.040;13.722;2023-09-07T02:33:30;100570.88;;;16.79;81.80
76448;BME280;65284;51.040;13.722;2023-09-07T02:35:57;100560.28;;;16.42;83.18
76448;BME280;65284;51.040;13.722;2023-09-07T02:38:23;100562.22;;;16.48;83.21
76448;BME280;65284;51.040;13.722;2023-09-07T02:40:50;100562.47;;;16.23;83.79
76448;BME280;65284;51.040;13.722;2023-09-07T02:43:16;100568.31;;;16.27;84.39
76448;BME280;65284;51.040;13.722;2023-09-07T02:45:42;100573.19;;;16.23;83.83
76448;BME280;65284;51.040;13.722;2023-09-07T02:48:09;100573.09;;;16.46;82.74
76448;BME280;65284;51.040;13.722;2023-09-07T02:50:36;100573.75;;;16.33;83.09
76448;BME280;65284;51.040;13.722;2023-09-07T02:53:02;100574.59;;;16.34;82.94
76448;BME280;65284;51.040;13.722;2023-09-07T02:55:30;100573.09;;;16.31;83.01
76448;BME280;65284;51.040;13.722;2023-09-07T02:57:57;100578.88;;;15.90;84.35
76448;BME280;65284;51.040;13.722;2023-09-07T03:00:24;100575.97;;;16.30;82.85
76448;BME280;65284;51.040;13.722;2023-09-07T03:02:51;100580.59;;;16.21;83.00
76448;BME280;65284;51.040;13.722;2023-09-07T03:05:18;100579.03;;;16.12;83.18
76448;BME280;65284;51.040;13.722;2023-09-07T03:07:45;100575.59;;;16.18;83.11
76448;BME280;65284;51.040;13.722;2023-09-07T03:10:13;100580.47;;;16.29;82.54
76448;BME280;65284;51.040;13.722;2023-09-07T03:12:40;100573.47;;;16.13;83.05
76448;BME280;65284;51.040;13.722;2023-09-07T03:15:07;100579.97;;;15.81;84.24
76448;BME280;65284;51.040;13.722;2023-09-07T03:17:33;100579.75;;;15.68;85.15
76448;BME280;65284;51.040;13.722;2023-09-07T03:20:00;100573.69;;;15.66;85.22
76448;BME280;65284;51.040;13.722;2023-09-07T03:22:30;100571.25;;;15.79;84.73
76448;BME280;65284;51.040;13.722;2023-09-07T03:24:56;100567.97;;;15.77;84.51
76448;BME280;65284;51.040;13.722;2023-09-07T03:27:23;100572.00;;;15.73;84.83
76448;BME280;65284;51.040;13.722;2023-09-07T03:29:49;100564.75;;;15.59;84.98
76448;BME280;65284;51.040;13.722;2023-09-07T03:32:18;100575.44;;;15.59;85.36
76448;BME280;65284;51.040;13.722;2023-09-07T03:34:44;100570.16;;;15.51;85.57
76448;BME280;65284;51.040;13.722;2023-09-07T03:37:11;100568.50;;;15.64;85.29
76448;BME280;65284;51.040;13.722;2023-09-07T03:39:38;100574.59;;;15.58;84.63
76448;BME280;65284;51.040;13.722;2023-09-07T03:42:04;100579.00;;;15.28;86.23
76448;BME280;65284;51.040;13.722;2023-09-07T03:44:31;100573.78;;;15.12;87.06
76448;BME280;65284;51.040;13.722;2023-09-07T03:46:57;100579.66;;;15.30;86.77
76448;BME280;65284;51.040;13.722;2023-09-07T03:49:24;100583.84;;;15.01;87.21
76448;BME280;65284;51.040;13.722;2023-09-07T03:51:50;100576.47;;;15.04;87.39
76448;BME280;65284;51.040;13.722;2023-09-07T03:54:17;100591.44;;;15.21;87.79
76448;BME280;65284;51.040;13.722;2023-09-07T03:56:43;100583.50;;;15.05;87.40
76448;BME280;65284;51.040;13.722;2023-09-07T03:59:09;100584.19;;;14.98;87.65
76448;BME280;65284;51.040;13.722;2023-09-07T04:01:37;100584.31;;;15.36;86.27
76448;BME280;65284;51.040;13.722;2023-09-07T04:04:04;100579.00;;;15.51;85.24
76448;BME280;65284;51.040;13.722;2023-09-07T04:06:30;100577.81;;;15.54;85.06
76448;BME280;65284;51.040;13.722;2023-09-07T04:08:57;100582.03;;;15.25;85.42
76448;BME280;65284;51.040;13.722;2023-09-07T04:11:23;100585.81;;;15.08;86.58
76448;BME280;65284;51.040;13.722;2023-09-07T04:13:50;100591.00;;;15.09;86.19
76448;BME280;65284;51.040;13.722;2023-09-07T04:16:16;100578.75;;;15.15;85.97
76448;BME280;65284;51.040;13.722;2023-09-07T04:18:43;100588.13;;;15.11;86.45
76448;BME280;65284;51.040;13.722;2023-09-07T04:21:10;100587.78;;;15.14;86.24
76448;BME280;65284;51.040;13.722;2023-09-07T04:23:37;100589.81;;;15.35;86.13
76448;BME280;65284;51.040;13.722;2023-09-07T04:26:09;100581.94;;;15.41;85.90
76448;BME280;65284;51.040;13.722;2023-09-07T04:28:36;100587.72;;;15.53;85.56
76448;BME280;65284;51.040;13.722;2023-09-07T04:31:03;100581.63;;;15.59;85.32
76448;BME280;65284;51.040;13.722;2023-09-07T04:33:31;100589.59;;;15.67;84.07
76448;BME280;65284;51.040;13.722;2023-09-07T04:36:15;100584.88;;;15.92;83.61
76448;BME280;65284;51.040;13.722;2023-09-07T04:38:41;100578.25;;;15.88;83.66
76448;BME280;65284;51.040;13.722;2023-09-07T04:41:12;100583.06;;;15.70;84.01
76448;BME280;65284;51.040;13.722;2023-09-07T04:43:41;100591.22;;;15.54;85.07
76448;BME280;65284;51.040;13.722;2023-09-07T04:46:10;100588.84;;;15.59;84.25
76448;BME280;65284;51.040;13.722;2023-09-07T04:48:37;100584.16;;;15.53;84.62
76448;BME280;65284;51.040;13.722;2023-09-07T04:51:07;100591.72;;;15.49;84.84
76448;BME280;65284;51.040;13.722;2023-09-07T04:53:35;100590.09;;;15.71;84.66
76448;BME280;65284;51.040;13.722;2023-09-07T04:56:06;100590.78;;;15.88;83.70
76448;BME280;65284;51.040;13.722;2023-09-07T04:58:35;100586.84;;;15.99;83.27
76448;BME280;65284;51.040;13.722;2023-09-07T05:01:05;100596.47;;;16.08;83.09
76448;BME280;65284;51.040;13.722;2023-09-07T05:03:32;100591.19;;;16.14;82.77
76448;BME280;65284;51.040;13.722;2023-09-07T05:06:00;100590.72;;;16.11;83.05
76448;BME280;65284;51.040;13.722;2023-09-07T05:08:27;100595.53;;;16.01;83.08
76448;BME280;65284;51.040;13.722;2023-09-07T05:11:01;100600.31;;;15.90;83.73
76448;BME280;65284;51.040;13.722;2023-09-07T05:13:30;100595.16;;;16.04;83.43
76448;BME280;65284;51.040;13.722;2023-09-07T05:15:58;100603.47;;;16.09;83.48
76448;BME280;65284;51.040;13.722;2023-09-07T05:18:25;100600.38;;;15.82;84.61
76448;BME280;65284;51.040;13.722;2023-09-07T05:20:52;100598.13;;;16.09;83.65
76448;BME280;65284;51.040;13.722;2023-09-07T05:23:20;100601.44;;;16.11;83.70
76448;BME280;65284;51.040;13.722;2023-09-07T05:25:54;100612.09;;;16.19;83.50
76448;BME280;65284;51.040;13.722;2023-09-07T05:28:22;100606.91;;;16.18;84.02
76448;BME280;65284;51.040;13.722;2023-09-07T05:30:49;100609.50;;;16.26;83.79
76448;BME280;65284;51.040;13.722;2023-09-07T05:33:16;100613.13;;;16.18;83.94
76448;BME280;65284;51.040;13.722;2023-09-07T05:35:43;100611.38;;;16.25;83.82
76448;BME280;65284;51.040;13.722;2023-09-07T05:38:12;100620.13;;;16.19;83.89
76448;BME280;65284;51.040;13.722;2023-09-07T05:40:43;100617.91;;;16.08;84.32
76448;BME280;65284;51.040;13.722;2023-09-07T05:43:10;100623.34;;;16.14;84.23
76448;BME280;65284;51.040;13.722;2023-09-07T05:45:39;100624.56;;;16.12;84.18
76448;BME280;65284;51.040;13.722;2023-09-07T05:48:07;100619.78;;;16.22;83.83
76448;BME280;65284;51.040;13.722;2023-09-07T05:50:36;100621.91;;;16.12;84.42
76448;BME280;65284;51.040;13.722;2023-09-07T05:53:03;100627.63;;;16.24;83.48
76448;BME280;65284;51.040;13.722;2023-09-07T05:55:30;100627.38;;;16.33;83.33
76448;BME280;65284;51.040;13.722;2023-09-07T05:57:57;100627.09;;;16.43;82.86
76448;BME280;65284;51.040;13.722;2023-09-07T06:00:24;100626.19;;;16.51;83.32
76448;BME280;65284;51.040;13.722;2023-09-07T06:02:51;100628.75;;;16.59;82.70
76448;BME280;65284;51.040;13.722;2023-09-07T06:05:17;100623.59;;;16.72;83.40
76448;BME280;65284;51.040;13.722;2023-09-07T06:07:44;100625.91;;;16.75;82.19
76448;BME280;65284;51.040;13.722;2023-09-07T06:10:11;100633.41;;;16.95;82.04
76448;BME280;65284;51.040;13.722;2023-09-07T06:12:38;100628.06;;;16.95;81.80
76448;BME280;65284;51.040;13.722;2023-09-07T06:15:04;100629.44;;;16.91;81.47
76448;BME280;65284;51.040;13.722;2023-09-07T06:17:31;100632.38;;;16.96;81.47
76448;BME280;65284;51.040;13.722;2023-09-07T06:19:58;100634.41;;;16.94;81.57
76448;BME280;65284;51.040;13.722;2023-09-07T06:22:24;100632.66;;;17.01;81.19
76448;BME280;65284;51.040;13.722;2023-09-07T06:24:51;100629.47;;;17.12;80.30
76448;BME280;65284;51.040;13.722;2023-09-07T06:27:17;100633.84;;;17.13;80.50
76448;BME280;65284;51.040;13.722;2023-09-07T06:29:44;100626.41;;;17.15;80.47
76448;BME280;65284;51.040;13.722;2023-09-07T06:32:10;100629.31;;;17.14;80.04
76448;BME280;65284;51.040;13.722;2023-09-07T06:34:37;100636.59;;;17.20;79.93
76448;BME280;65284;51.040;13.722;2023-09-07T06:37:04;100634.19;;;17.25;79.78
76448;BME280;65284;51.040;13.722;2023-09-07T06:39:31;100632.84;;;17.36;79.25
76448;BME280;65284;51.040;13.722;2023-09-07T06:41:57;100641.44;;;17.46;78.94
76448;BME280;65284;51.040;13.722;2023-09-07T06:44:23;100633.75;;;17.43;79.07
76448;BME280;65284;51.040;13.722;2023-09-07T06:46:50;100639.63;;;17.53;78.58
76448;BME280;65284;51.040;13.722;2023-09-07T06:49:16;100640.16;;;17.63;78.25
76448;BME280;65284;51.040;13.722;2023-09-07T06:51:43;100643.84;;;17.62;78.29
76448;BME280;65284;51.040;13.722;2023-09-07T06:54:09;100647.00;;;17.81;77.58
76448;BME280;65284;51.040;13.722;2023-09-07T06:56:36;100645.19;;;17.88;77.76
76448;BME280;65284;51.040;13.722;2023-09-07T06:59:02;100642.50;;;17.88;77.49
76448;BME280;65284;51.040;13.722;2023-09-07T07:01:29;100645.44;;;17.93;77.24
76448;BME280;65284;51.040;13.722;2023-09-07T07:03:56;100644.88;;;18.04;77.28
76448;BME280;65284;51.040;13.722;2023-09-07T07:06:24;100640.16;;;18.06;76.80
76448;BME280;65284;51.040;13.722;2023-09-07T07:08:51;100648.88;;;18.08;76.82
76448;BME280;65284;51.040;13.722;2023-09-07T07:11:18;100648.34;;;18.19;76.53
76448;BME280;65284;51.040;13.722;2023-09-07T07:13:45;100646.91;;;18.24;76.11
76448;BME280;65284;51.040;13.722;2023-09-07T07:16:11;100643.84;;;18.27;76.08
76448;BME280;65284;51.040;13.722;2023-09-07T07:18:38;100646.97;;;18.30;76.51
76448;BME280;65284;51.040;13.722;2023-09-07T07:21:19;100642.91;;;18.41;76.10
76448;BME280;65284;51.040;13.722;2023-09-07T07:23:46;100649.38;;;18.47;75.65
76448;BME280;65284;51.040;13.722;2023-09-07T07:26:12;100645.28;;;18.57;75.22
76448;BME280;65284;51.040;13.722;2023-09-07T07:28:39;100643.31;;;18.73;74.54
76448;BME280;65284;51.040;13.722;2023-09-07T07:31:19;100641.47;;;18.73;75.43
76448;BME280;65284;51.040;13.722;2023-09-07T07:33:46;100649.03;;;18.91;74.47
76448;BME280;65284;51.040;13.722;2023-09-07T07:36:14;100644.69;;;18.90;74.61
76448;BME280;65284;51.040;13.722;2023-09-07T07:38:41;100646.72;;;19.36;72.68
76448;BME280;65284;51.040;13.722;2023-09-07T07:41:07;100651.78;;;19.66;71.34
76448;BME280;65284;51.040;13.722;2023-09-07T07:43:34;100649.47;;;19.63;71.56
76448;BME280;65284;51.040;13.722;2023-09-07T07:46:01;100651.50;;;19.47;72.16
76448;BME280;65284;51.040;13.722;2023-09-07T07:48:27;100656.72;;;19.55;72.20
76448;BME280;65284;51.040;13.722;2023-09-07T07:50:55;100650.69;;;19.53;72.42
76448;BME280;65284;51.040;13.722;2023-09-07T07:53:22;100650.47;;;19.55;72.46
76448;BME280;65284;51.040;13.722;2023-09-07T07:55:48;100644.66;;;19.51;72.71
76448;BME280;65284;51.040;13.722;2023-09-07T07:58:15;100652.97;;;19.50;72.97
76448;BME280;65284;51.040;13.722;2023-09-07T08:00:41;100645.94;;;19.55;72.83
76448;BME280;65284;51.040;13.722;2023-09-07T08:03:11;100649.47;;;19.63;72.95
76448;BME280;65284;51.040;13.722;2023-09-07T08:05:37;100645.34;;;19.67;72.74
76448;BME280;65284;51.040;13.722;2023-09-07T08:08:05;100643.50;;;19.87;72.33
76448;BME280;65284;51.040;13.722;2023-09-07T08:10:36;100644.16;;;20.03;72.08
76448;BME280;65284;51.040;13.722;2023-09-07T08:13:07;100652.66;;;20.06;71.85
76448;BME280;65284;51.040;13.722;2023-09-07T08:15:34;100641.66;;;20.21;70.93
76448;BME280;65284;51.040;13.722;2023-09-07T08:18:00;100637.28;;;20.33;70.51
76448;BME280;65284;51.040;13.722;2023-09-07T08:20:27;100638.94;;;20.34;69.99
76448;BME280;65284;51.040;13.722;2023-09-07T08:22:55;100635.59;;;20.45;69.45
76448;BME280;65284;51.040;13.722;2023-09-07T08:25:22;100629.81;;;20.42;69.64
76448;BME280;65284;51.040;13.722;2023-09-07T08:27:49;100628.34;;;20.53;69.26
76448;BME280;65284;51.040;13.722;2023-09-07T08:30:16;100626.50;;;20.53;69.32
76448;BME280;65284;51.040;13.722;2023-09-07T08:32:45;100624.78;;;20.72;68.70
76448;BME280;65284;51.040;13.722;2023-09-07T08:35:14;100627.22;;;20.87;68.32
76448;BME280;65284;51.040;13.722;2023-09-07T08:37:43;100621.19;;;20.92;68.38
76448;BME280;65284;51.040;13.722;2023-09-07T08:40:09;100625.53;;;20.93;68.71
76448;BME280;65284;51.040;13.722;2023-09-07T08:42:38;100622.22;;;20.90;67.97
76448;BME280;65284;51.040;13.722;2023-09-07T08:45:08;100623.03;;;20.98;67.89
76448;BME280;65284;51.040;13.722;2023-09-07T08:47:37;100625.06;;;21.09;67.85
76448;BME280;65284;51.040;13.722;2023-09-07T08:50:05;100630.03;;;21.12;67.59
76448;BME280;65284;51.040;13.722;2023-09-07T08:52:34;100624.13;;;21.28;67.12
76448;BME280;65284;51.040;13.722;2023-09-07T08:55:02;100621.59;;;21.33;67.46
76448;BME280;65284;51.040;13.722;2023-09-07T08:57:31;100617.00;;;21.41;66.97
76448;BME280;65284;51.040;13.722;2023-09-07T08:59:58;100619.91;;;21.46;66.84
76448;BME280;65284;51.040;13.722;2023-09-07T09:02:25;100620.22;;;21.56;65.34
76448;BME280;65284;51.040;13.722;2023-09-07T09:04:52;100628.97;;;21.58;65.65
76448;BME280;65284;51.040;13.722;2023-09-07T09:07:20;100622.72;;;21.57;65.18
76448;BME280;65284;51.040;13.722;2023-09-07T09:09:48;100616.44;;;21.64;64.78
76448;BME280;65284;51.040;13.722;2023-09-07T09:12:16;100624.03;;;21.80;63.34
76448;BME280;65284;51.040;13.722;2023-09-07T09:14:43;100620.66;;;21.85;63.62
76448;BME280;65284;51.040;13.722;2023-09-07T09:17:13;100621.75;;;22.02;62.43
76448;BME280;65284;51.040;13.722;2023-09-07T09:19:41;100629.59;;;22.10;62.38
76448;BME280;65284;51.040;13.722;2023-09-07T09:22:08;100622.09;;;22.37;60.92
76448;BME280;65284;51.040;13.722;2023-09-07T09:24:35;100621.19;;;22.43;60.99
76448;BME280;65284;51.040;13.722;2023-09-07T09:27:02;100619.09;;;22.45;60.48
76448;BME280;65284;51.040;13.722;2023-09-07T09:29:34;100620.22;;;22.56;59.45
76448;BME280;65284;51.040;13.722;2023-09-07T09:32:05;100617.16;;;22.53;59.62
76448;BME280;65284;51.040;13.722;2023-09-07T09:34:33;100618.56;;;22.55;60.14
76448;BME280;65284;51.040;13.722;2023-09-07T09:37:01;100607.75;;;22.55;60.16
76448;BME280;65284;51.040;13.722;2023-09-07T09:39:28;100608.03;;;22.65;59.87
76448;BME280;65284;51.040;13.722;2023-09-07T09:41:55;100619.47;;;22.67;60.10
76448;BME280;65284;51.040;13.722;2023-09-07T09:44:23;100614.38;;;22.78;59.38
76448;BME280;65284;51.040;13.722;2023-09-07T09:46:53;100617.81;;;22.85;59.32
76448;BME280;65284;51.040;13.722;2023-09-07T09:49:23;100609.63;;;22.73;59.66
76448;BME280;65284;51.040;13.722;2023-09-07T09:51:49;100607.06;;;22.78;59.34
76448;BME280;65284;51.040;13.722;2023-09-07T09:54:20;100604.50;;;22.83;59.53
76448;BME280;65284;51.040;13.722;2023-09-07T09:56:46;100605.81;;;22.81;59.71
76448;BME280;65284;51.040;13.722;2023-09-07T09:59:14;100600.75;;;22.84;59.17
76448;BME280;65284;51.040;13.722;2023-09-07T10:01:44;100601.66;;;22.78;59.37
76448;BME280;65284;51.040;13.722;2023-09-07T10:04:16;100603.75;;;22.76;59.72
76448;BME280;65284;51.040;13.722;2023-09-07T10:06:53;100608.81;;;22.73;59.63
76448;BME280;65284;51.040;13.722;2023-09-07T10:09:20;100599.94;;;22.84;59.32
76448;BME280;65284;51.040;13.722;2023-09-07T10:11:58;100596.53;;;22.88;58.68
76448;BME280;65284;51.040;13.722;2023-09-07T10:14:25;100591.56;;;22.85;58.42
76448;BME280;65284;51.040;13.722;2023-09-07T10:16:53;100590.75;;;22.85;58.32
76448;BME280;65284;51.040;13.722;2023-09-07T10:19:23;100590.53;;;23.05;57.60
76448;BME280;65284;51.040;13.722;2023-09-07T10:21:55;100589.69;;;23.04;56.44
76448;BME280;65284;51.040;13.722;2023-09-07T10:24:25;100594.75;;;23.31;55.33
76448;BME280;65284;51.040;13.722;2023-09-07T10:26:56;100586.47;;;23.26;55.87
76448;BME280;65284;51.040;13.722;2023-09-07T10:29:23;100587.44;;;23.31;55.43
76448;BME280;65284;51.040;13.722;2023-09-07T10:31:52;100585.56;;;23.32;55.01
76448;BME280;65284;51.040;13.722;2023-09-07T10:34:20;100581.63;;;23.28;55.52
76448;BME280;65284;51.040;13.722;2023-09-07T10:36:48;100580.16;;;23.44;55.42
76448;BME280;65284;51.040;13.722;2023-09-07T10:39:21;100572.28;;;23.54;54.76
76448;BME280;65284;51.040;13.722;2023-09-07T10:41:48;100567.44;;;23.44;55.48
76448;BME280;65284;51.040;13.722;2023-09-07T10:44:14;100571.78;;;23.45;54.14
76448;BME280;65284;51.040;13.722;2023-09-07T10:46:41;100565.44;;;23.51;53.01
76448;BME280;65284;51.040;13.722;2023-09-07T10:49:08;100575.69;;;23.49;53.47
76448;BME280;65284;51.040;13.722;2023-09-07T10:51:42;100564.16;;;23.66;52.74
76448;BME280;65284;51.040;13.722;2023-09-07T10:54:23;100563.63;;;23.75;49.19
76448;BME280;65284;51.040;13.722;2023-09-07T10:56:50;100572.69;;;23.81;48.31
76448;BME280;65284;51.040;13.722;2023-09-07T10:59:17;100563.16;;;23.78;48.82
76448;BME280;65284;51.040;13.722;2023-09-07T11:01:44;100570.59;;;23.83;49.39
76448;BME280;65284;51.040;13.722;2023-09-07T11:04:11;100563.06;;;23.85;49.61
76448;BME280;65284;51.040;13.722;2023-09-07T11:06:39;100562.72;;;23.93;49.55
76448;BME280;65284;51.040;13.722;2023-09-07T11:09:06;100564.69;;;23.86;50.70
76448;BME280;65284;51.040;13.722;2023-09-07T11:11:36;100568.22;;;23.98;49.40
76448;BME280;65284;51.040;13.722;2023-09-07T11:14:04;100564.47;;;23.99;48.65
76448;BME280;65284;51.040;13.722;2023-09-07T11:16:33;100559.13;;;24.04;48.25
76448;BME280;65284;51.040;13.722;2023-09-07T11:19:04;100565.41;;;24.17;47.79
76448;BME280;65284;51.040;13.722;2023-09-07T11:21:31;100567.88;;;24.18;48.38
76448;BME280;65284;51.040;13.722;2023-09-07T11:24:02;100560.00;;;24.17;48.68
76448;BME280;65284;51.040;13.722;2023-09-07T11:26:42;100565.28;;;24.12;49.38
76448;BME280;65284;51.040;13.722;2023-09-07T11:29:09;100555.84;;;24.14;48.66
76448;BME280;65284;51.040;13.722;2023-09-07T11:31:36;100552.41;;;24.19;48.67
76448;BME280;65284;51.040;13.722;2023-09-07T11:34:03;100552.53;;;24.24;48.01
76448;BME280;65284;51.040;13.722;2023-09-07T11:36:34;100556.31;;;24.35;48.02
76448;BME280;65284;51.040;13.722;2023-09-07T11:39:00;100554.28;;;24.30;47.70
76448;BME280;65284;51.040;13.722;2023-09-07T11:41:27;100560.53;;;24.30;48.08
76448;BME280;65284;51.040;13.722;2023-09-07T11:43:53;100553.59;;;24.23;47.40
76448;BME280;65284;51.040;13.722;2023-09-07T11:46:20;100550.88;;;24.35;47.57
76448;BME280;65284;51.040;13.722;2023-09-07T11:48:46;100554.28;;;24.54;47.74
76448;BME280;65284;51.040;13.722;2023-09-07T11:51:13;100556.19;;;24.53;46.97
76448;BME280;65284;51.040;13.722;2023-09-07T11:53:39;100550.50;;;24.55;46.43
76448;BME280;65284;51.040;13.722;2023-09-07T11:56:06;100547.41;;;24.63;45.52
76448;BME280;65284;51.040;13.722;2023-09-07T11:58:32;100548.59;;;24.67;46.00
76448;BME280;65284;51.040;13.722;2023-09-07T12:00:59;100542.19;;;24.73;46.08
76448;BME280;65284;51.040;13.722;2023-09-07T12:03:26;100552.84;;;24.63;46.56
76448;BME280;65284;51.040;13.722;2023-09-07T12:05:53;100548.78;;;24.77;46.10
76448;BME280;65284;51.040;13.722;2023-09-07T12:08:19;100541.22;;;24.79;45.12
76448;BME280;65284;51.040;13.722;2023-09-07T12:10:46;100540.03;;;24.75;44.76
76448;BME280;65284;51.040;13.722;2023-09-07T12:13:13;100532.19;;;24.90;44.79
76448;BME280;65284;51.040;13.722;2023-09-07T12:15:39;100532.19;;;24.90;45.00
76448;BME280;65284;51.040;13.722;2023-09-07T12:18:06;100531.09;;;25.03;44.05
76448;BME280;65284;51.040;13.722;2023-09-07T12:20:33;100526.47;;;25.04;42.96
76448;BME280;65284;51.040;13.722;2023-09-07T12:23:01;100527.13;;;25.11;43.38
76448;BME280;65284;51.040;13.722;2023-09-07T12:25:28;100521.34;;;25.07;44.15
76448;BME280;65284;51.040;13.722;2023-09-07T12:27:55;100522.75;;;25.22;43.88
76448;BME280;65284;51.040;13.722;2023-09-07T12:30:22;100527.03;;;25.17;43.61
76448;BME280;65284;51.040;13.722;2023-09-07T12:32:51;100523.06;;;25.25;43.83
76448;BME280;65284;51.040;13.722;2023-09-07T12:35:18;100510.06;;;25.27;43.55
76448;BME280;65284;51.040;13.722;2023-09-07T12:37:46;100516.56;;;25.26;42.80
76448;BME280;65284;51.040;13.722;2023-09-07T12:40:13;100515.00;;;25.30;42.58
76448;BME280;65284;51.040;13.722;2023-09-07T12:42:41;100515.00;;;25.30;42.08